sensor_id;sensor_type;location;lat;lon;timestamp;pressure;altitude;pressure_sealevel;temperature;humidity
53440;BME280;39333;47.044;15.080;2022-12-29T00:02:26;96418.66;;;-0.88;76.05
53440;BME280;39333;47.044;15.080;2022-12-29T00:04:53;96417.78;;;-0.80;75.18
53440;BME280;39333;47.044;15.080;2022-12-29T00:07:20;96408.22;;;-0.88;74.83
53440;BME280;39333;47.044;15.080;2022-12-29T00:09:47;96409.53;;;-0.92;75.36
53440;BME280;39333;47.044;15.080;2022-12-29T00:12:14;96405.78;;;-0.81;74.99
53440;BME280;39333;47.044;15.080;2022-12-29T00:14:41;96411.63;;;-0.79;74.63
53440;BME280;39333;47.044;15.080;2022-12-29T00:17:26;96410.97;;;-0.73;73.71
53440;BME280;39333;47.044;15.080;2022-12-29T00:19:53;96410.31;;;-0.67;73.62
53440;BME280;39333;47.044;15.080;2022-12-29T00:22:45;96405.25;;;-0.68;73.70
53440;BME280;39333;47.044;15.080;2022-12-29T00:25:31;96392.72;;;-0.65;73.15
53440;BME280;39333;47.044;15.080;2022-12-29T00:28:16;96402.81;;;-0.78;73.42
53440;BME280;39333;47.044;15.080;2022-12-29T00:31:07;96390.94;;;-0.73;72.97
53440;BME280;39333;47.044;15.080;2022-12-29T00:33:57;96394.03;;;-0.77;72.84
53440;BME280;39333;47.044;15.080;2022-12-29T00:36:43;96392.78;;;-0.81;73.28
53440;BME280;39333;47.044;15.080;2022-12-29T00:39:16;96385.59;;;-0.79;73.25
53440;BME280;39333;47.044;15.080;2022-12-29T00:42:07;96383.63;;;-0.77;72.93
53440;BME280;39333;47.044;15.080;2022-12-29T00:45:04;96390.78;;;-0.79;72.71
53440;BME280;39333;47.044;15.080;2022-12-29T00:47:32;96376.34;;;-0.90;73.31
53440;BME280;39333;47.044;15.080;2022-12-29T00:49:59;96375.69;;;-0.92;73.23
53440;BME280;39333;47.044;15.080;2022-12-29T00:52:26;96375.59;;;-1.15;73.48
53440;BME280;39333;47.044;15.080;2022-12-29T00:54:53;96388.94;;;-1.42;75.65
53440;BME280;39333;47.044;15.080;2022-12-29T00:57:20;96383.06;;;-1.28;75.95
53440;BME280;39333;47.044;15.080;2022-12-29T00:59:47;96388.75;;;-1.24;75.74
53440;BME280;39333;47.044;15.080;2022-12-29T01:02:15;96387.13;;;-1.25;76.29
53440;BME280;39333;47.044;15.080;2022-12-29T01:04:42;96382.25;;;-1.28;76.50
53440;BME280;39333;47.044;15.080;2022-12-29T01:07:09;96391.84;;;-1.21;75.70
53440;BME280;39333;47.044;15.080;2022-12-29T01:09:36;96381.78;;;-1.81;76.66
53440;BME280;39333;47.044;15.080;2022-12-29T01:12:21;96395.78;;;-1.65;77.21
53440;BME280;39333;47.044;15.080;2022-12-29T01:15:12;96398.38;;;-1.49;76.17
53440;BME280;39333;47.044;15.080;2022-12-29T01:17:40;96395.63;;;-1.31;75.62
53440;BME280;39333;47.044;15.080;2022-12-29T01:20:07;96384.03;;;-1.29;75.56
53440;BME280;39333;47.044;15.080;2022-12-29T01:22:34;96392.50;;;-1.27;74.57
53440;BME280;39333;47.044;15.080;2022-12-29T01:25:01;96385.03;;;-1.22;74.38
53440;BME280;39333;47.044;15.080;2022-12-29T01:27:28;96398.53;;;-1.51;75.64
53440;BME280;39333;47.044;15.080;2022-12-29T01:29:55;96395.59;;;-1.39;76.00
53440;BME280;39333;47.044;15.080;2022-12-29T01:32:22;96387.00;;;-1.48;75.48
53440;BME280;39333;47.044;15.080;2022-12-29T01:34:49;96381.63;;;-1.71;76.77
53440;BME280;39333;47.044;15.080;2022-12-29T01:37:16;96387.16;;;-1.58;76.82
53440;BME280;39333;47.044;15.080;2022-12-29T01:39:43;96381.00;;;-1.49;76.10
53440;BME280;39333;47.044;15.080;2022-12-29T01:42:16;96367.00;;;-1.56;76.47
53440;BME280;39333;47.044;15.080;2022-12-29T01:47:52;96371.72;;;-1.76;76.47
53440;BME280;39333;47.044;15.080;2022-12-29T01:50:26;96373.50;;;-1.60;77.06
53440;BME280;39333;47.044;15.080;2022-12-29T01:53:13;96365.03;;;-1.94;77.58
53440;BME280;39333;47.044;15.080;2022-12-29T01:55:51;96373.56;;;-2.26;79.47
53440;BME280;39333;47.044;15.080;2022-12-29T01:58:20;96365.47;;;-2.23;79.68
53440;BME280;39333;47.044;15.080;2022-12-29T02:00:49;96361.66;;;-1.95;79.28
53440;BME280;39333;47.044;15.080;2022-12-29T02:03:17;96353.31;;;-2.06;79.10
53440;BME280;39333;47.044;15.080;2022-12-29T02:05:59;96350.56;;;-2.05;79.38
53440;BME280;39333;47.044;15.080;2022-12-29T02:08:29;96348.44;;;-2.09;80.44
53440;BME280;39333;47.044;15.080;2022-12-29T02:10:59;96339.06;;;-2.02;80.12
53440;BME280;39333;47.044;15.080;2022-12-29T02:13:27;96336.78;;;-2.05;80.47
53440;BME280;39333;47.044;15.080;2022-12-29T02:30:05;96315.69;;;-1.86;79.09
53440;BME280;39333;47.044;15.080;2022-12-29T02:38:18;96294.09;;;-1.95;79.83
53440;BME280;39333;47.044;15.080;2022-12-29T02:40:54;96304.59;;;-2.21;80.98
53440;BME280;39333;47.044;15.080;2022-12-29T02:43:36;96288.53;;;-2.24;81.31
53440;BME280;39333;47.044;15.080;2022-12-29T02:51:43;96301.22;;;-1.97;82.24
53440;BME280;39333;47.044;15.080;2022-12-29T02:54:10;96304.63;;;-1.88;82.36
53440;BME280;39333;47.044;15.080;2022-12-29T02:56:56;96304.81;;;-1.82;82.68
53440;BME280;39333;47.044;15.080;2022-12-29T02:59:23;96312.56;;;-1.57;84.96
53440;BME280;39333;47.044;15.080;2022-12-29T03:05:14;96307.22;;;-1.56;83.17
53440;BME280;39333;47.044;15.080;2022-12-29T03:21:26;96293.06;;;-1.53;82.11
53440;BME280;39333;47.044;15.080;2022-12-29T03:24:18;96287.56;;;-1.50;82.02
53440;BME280;39333;47.044;15.080;2022-12-29T03:26:47;96289.31;;;-1.43;82.45
53440;BME280;39333;47.044;15.080;2022-12-29T03:29:18;96294.66;;;-1.44;83.28
53440;BME280;39333;47.044;15.080;2022-12-29T03:31:49;96287.22;;;-1.55;83.72
53440;BME280;39333;47.044;15.080;2022-12-29T03:34:20;96285.94;;;-1.51;83.25
53440;BME280;39333;47.044;15.080;2022-12-29T03:36:52;96292.72;;;-1.42;82.83
53440;BME280;39333;47.044;15.080;2022-12-29T03:39:22;96292.88;;;-1.35;81.62
53440;BME280;39333;47.044;15.080;2022-12-29T03:41:55;96292.72;;;-1.34;81.25
53440;BME280;39333;47.044;15.080;2022-12-29T03:44:39;96285.91;;;-1.35;81.00
53440;BME280;39333;47.044;15.080;2022-12-29T03:47:10;96291.53;;;-1.23;81.39
53440;BME280;39333;47.044;15.080;2022-12-29T03:49:37;96299.22;;;-1.30;81.12
53440;BME280;39333;47.044;15.080;2022-12-29T03:52:05;96302.16;;;-1.41;80.68
53440;BME280;39333;47.044;15.080;2022-12-29T03:54:37;96296.13;;;-1.42;80.46
53440;BME280;39333;47.044;15.080;2022-12-29T03:57:06;96292.06;;;-1.36;80.35
53440;BME280;39333;47.044;15.080;2022-12-29T03:59:46;96302.47;;;-1.44;79.61
53440;BME280;39333;47.044;15.080;2022-12-29T04:02:14;96302.19;;;-1.82;81.80
53440;BME280;39333;47.044;15.080;2022-12-29T04:04:41;96286.28;;;-1.79;82.47
53440;BME280;39333;47.044;15.080;2022-12-29T04:07:08;96278.94;;;-1.75;82.16
53440;BME280;39333;47.044;15.080;2022-12-29T04:09:35;96279.44;;;-1.71;81.69
53440;BME280;39333;47.044;15.080;2022-12-29T04:12:03;96283.03;;;-1.72;81.72
53440;BME280;39333;47.044;15.080;2022-12-29T04:14:33;96289.66;;;-1.62;81.27
53440;BME280;39333;47.044;15.080;2022-12-29T04:17:00;96287.22;;;-1.47;80.46
53440;BME280;39333;47.044;15.080;2022-12-29T04:19:28;96291.41;;;-1.38;79.58
53440;BME280;39333;47.044;15.080;2022-12-29T04:21:55;96295.97;;;-1.32;78.44
53440;BME280;39333;47.044;15.080;2022-12-29T04:24:22;96282.84;;;-1.47;78.92
53440;BME280;39333;47.044;15.080;2022-12-29T04:26:49;96284.94;;;-1.50;79.87
53440;BME280;39333;47.044;15.080;2022-12-29T04:29:29;96291.63;;;-1.64;80.11
53440;BME280;39333;47.044;15.080;2022-12-29T04:32:12;96289.50;;;-1.52;80.22
53440;BME280;39333;47.044;15.080;2022-12-29T04:34:44;96293.69;;;-1.43;79.70
53440;BME280;39333;47.044;15.080;2022-12-29T04:37:11;96296.03;;;-1.64;80.79
53440;BME280;39333;47.044;15.080;2022-12-29T04:39:38;96291.63;;;-1.64;80.75
53440;BME280;39333;47.044;15.080;2022-12-29T04:42:06;96284.28;;;-1.60;80.17
53440;BME280;39333;47.044;15.080;2022-12-29T04:44:33;96287.06;;;-1.54;79.33
53440;BME280;39333;47.044;15.080;2022-12-29T04:47:28;96295.03;;;-1.47;78.95
53440;BME280;39333;47.044;15.080;2022-12-29T04:50:13;96285.91;;;-1.43;78.23
53440;BME280;39333;47.044;15.080;2022-12-29T04:52:51;96278.56;;;-1.39;77.68
53440;BME280;39333;47.044;15.080;2022-12-29T04:55:18;96277.97;;;-1.58;79.09
53440;BME280;39333;47.044;15.080;2022-12-29T04:57:45;96273.09;;;-1.61;79.00
53440;BME280;39333;47.044;15.080;2022-12-29T05:00:16;96287.25;;;-1.63;79.48
53440;BME280;39333;47.044;15.080;2022-12-29T05:02:45;96276.84;;;-1.71;80.97
53440;BME280;39333;47.044;15.080;2022-12-29T05:05:13;96276.53;;;-1.68;82.13
53440;BME280;39333;47.044;15.080;2022-12-29T05:07:45;96288.06;;;-1.63;81.63
53440;BME280;39333;47.044;15.080;2022-12-29T05:10:12;96277.81;;;-1.64;82.46
53440;BME280;39333;47.044;15.080;2022-12-29T05:12:40;96290.97;;;-1.66;82.49
53440;BME280;39333;47.044;15.080;2022-12-29T05:15:08;96294.38;;;-1.73;82.85
53440;BME280;39333;47.044;15.080;2022-12-29T05:17:37;96287.25;;;-1.63;83.99
53440;BME280;39333;47.044;15.080;2022-12-29T05:20:06;96292.44;;;-1.47;84.25
53440;BME280;39333;47.044;15.080;2022-12-29T05:22:34;96291.44;;;-1.46;83.43
53440;BME280;39333;47.044;15.080;2022-12-29T05:25:02;96300.84;;;-1.45;83.70
53440;BME280;39333;47.044;15.080;2022-12-29T05:27:32;96299.56;;;-1.49;83.26
53440;BME280;39333;47.044;15.080;2022-12-29T05:30:16;96304.44;;;-1.46;82.91
53440;BME280;39333;47.044;15.080;2022-12-29T05:32:43;96298.59;;;-1.48;81.98
53440;BME280;39333;47.044;15.080;2022-12-29T05:35:10;96294.53;;;-1.51;82.21
53440;BME280;39333;47.044;15.080;2022-12-29T05:37:37;96305.59;;;-1.49;83.54
53440;BME280;39333;47.044;15.080;2022-12-29T05:40:05;96299.09;;;-1.53;82.91
53440;BME280;39333;47.044;15.080;2022-12-29T05:42:33;96307.38;;;-1.49;83.55
53440;BME280;39333;47.044;15.080;2022-12-29T05:45:23;96309.81;;;-1.48;82.69
53440;BME280;39333;47.044;15.080;2022-12-29T05:47:57;96305.75;;;-1.50;83.00
53440;BME280;39333;47.044;15.080;2022-12-29T05:50:48;96305.06;;;-1.44;82.18
53440;BME280;39333;47.044;15.080;2022-12-29T05:53:18;96320.22;;;-1.48;81.27
53440;BME280;39333;47.044;15.080;2022-12-29T05:55:48;96318.44;;;-1.63;81.01
53440;BME280;39333;47.044;15.080;2022-12-29T05:58:17;96334.03;;;-1.80;81.85
53440;BME280;39333;47.044;15.080;2022-12-29T06:00:44;96327.22;;;-1.81;82.28
53440;BME280;39333;47.044;15.080;2022-12-29T06:03:11;96332.75;;;-1.84;82.39
53440;BME280;39333;47.044;15.080;2022-12-29T06:05:38;96335.16;;;-1.74;81.76
53440;BME280;39333;47.044;15.080;2022-12-29T06:08:05;96337.91;;;-1.76;81.58
53440;BME280;39333;47.044;15.080;2022-12-29T06:10:33;96331.25;;;-1.78;82.90
53440;BME280;39333;47.044;15.080;2022-12-29T06:13:03;96326.06;;;-1.78;81.78
53440;BME280;39333;47.044;15.080;2022-12-29T06:15:35;96337.47;;;-1.79;82.01
53440;BME280;39333;47.044;15.080;2022-12-29T06:18:05;96336.28;;;-1.77;81.84
53440;BME280;39333;47.044;15.080;2022-12-29T06:20:33;96327.22;;;-1.81;81.38
53440;BME280;39333;47.044;15.080;2022-12-29T06:23:02;96328.84;;;-1.80;80.89
53440;BME280;39333;47.044;15.080;2022-12-29T06:25:30;96325.75;;;-1.75;80.63
53440;BME280;39333;47.044;15.080;2022-12-29T06:27:59;96341.34;;;-1.75;80.42
53440;BME280;39333;47.044;15.080;2022-12-29T06:30:26;96340.88;;;-1.79;80.84
53440;BME280;39333;47.044;15.080;2022-12-29T06:32:53;96344.91;;;-1.76;80.95
53440;BME280;39333;47.044;15.080;2022-12-29T06:35:21;96343.94;;;-1.75;81.34
53440;BME280;39333;47.044;15.080;2022-12-29T06:37:51;96343.63;;;-1.80;80.59
53440;BME280;39333;47.044;15.080;2022-12-29T06:40:19;96347.19;;;-1.81;79.97
53440;BME280;39333;47.044;15.080;2022-12-29T06:43:09;96355.47;;;-1.86;80.73
53440;BME280;39333;47.044;15.080;2022-12-29T06:45:58;96352.88;;;-1.86;80.45
53440;BME280;39333;47.044;15.080;2022-12-29T06:48:25;96357.91;;;-1.76;80.27
53440;BME280;39333;47.044;15.080;2022-12-29T06:50:52;96363.44;;;-1.71;79.09
53440;BME280;39333;47.044;15.080;2022-12-29T06:53:22;96361.16;;;-1.66;78.68
53440;BME280;39333;47.044;15.080;2022-12-29T06:55:48;96359.38;;;-1.73;79.86
53440;BME280;39333;47.044;15.080;2022-12-29T06:58:15;96360.03;;;-1.80;80.41
53440;BME280;39333;47.044;15.080;2022-12-29T07:00:42;96351.88;;;-1.77;79.58
53440;BME280;39333;47.044;15.080;2022-12-29T07:03:09;96362.63;;;-1.80;79.12
53440;BME280;39333;47.044;15.080;2022-12-29T07:05:36;96363.09;;;-1.76;79.43
53440;BME280;39333;47.044;15.080;2022-12-29T07:08:03;96353.06;;;-1.79;79.60
53440;BME280;39333;47.044;15.080;2022-12-29T07:10:30;96357.41;;;-1.71;79.88
53440;BME280;39333;47.044;15.080;2022-12-29T07:12:57;96356.28;;;-1.69;80.55
53440;BME280;39333;47.044;15.080;2022-12-29T07:15:24;96353.53;;;-1.67;80.52
53440;BME280;39333;47.044;15.080;2022-12-29T07:17:51;96356.59;;;-1.72;80.37
53440;BME280;39333;47.044;15.080;2022-12-29T07:20:18;96356.28;;;-1.69;79.79
53440;BME280;39333;47.044;15.080;2022-12-29T07:22:52;96360.34;;;-1.66;79.90
53440;BME280;39333;47.044;15.080;2022-12-29T07:25:18;96346.84;;;-1.62;79.38
53440;BME280;39333;47.044;15.080;2022-12-29T07:27:45;96372.22;;;-1.56;79.18
53440;BME280;39333;47.044;15.080;2022-12-29T07:30:12;96368.31;;;-1.52;78.29
53440;BME280;39333;47.044;15.080;2022-12-29T07:32:39;96364.91;;;-1.52;78.55
53440;BME280;39333;47.044;15.080;2022-12-29T07:35:06;96361.00;;;-1.56;79.17
53440;BME280;39333;47.044;15.080;2022-12-29T07:37:33;96346.84;;;-1.46;78.74
53440;BME280;39333;47.044;15.080;2022-12-29T07:40:01;96345.38;;;-1.40;79.21
53440;BME280;39333;47.044;15.080;2022-12-29T07:42:31;96343.72;;;-1.25;79.29
53440;BME280;39333;47.044;15.080;2022-12-29T07:44:58;96347.94;;;-1.08;79.54
53440;BME280;39333;47.044;15.080;2022-12-29T07:47:48;96356.66;;;-0.84;80.56
53440;BME280;39333;47.044;15.080;2022-12-29T07:50:16;96356.72;;;-0.61;82.44
53440;BME280;39333;47.044;15.080;2022-12-29T07:52:43;96357.47;;;-0.45;81.44
53440;BME280;39333;47.044;15.080;2022-12-29T07:55:10;96357.06;;;-0.25;82.26
53440;BME280;39333;47.044;15.080;2022-12-29T07:57:37;96358.25;;;-0.05;82.38
53440;BME280;39333;47.044;15.080;2022-12-29T08:00:04;96358.31;;;0.10;81.59
53440;BME280;39333;47.044;15.080;2022-12-29T08:02:37;96356.84;;;0.07;80.67
53440;BME280;39333;47.044;15.080;2022-12-29T08:05:04;96342.03;;;0.08;80.72
53440;BME280;39333;47.044;15.080;2022-12-29T08:07:31;96352.94;;;0.11;80.59
53440;BME280;39333;47.044;15.080;2022-12-29T08:09:58;96350.84;;;0.29;80.41
53440;BME280;39333;47.044;15.080;2022-12-29T08:12:24;96352.03;;;0.42;81.02
53440;BME280;39333;47.044;15.080;2022-12-29T08:14:51;96352.09;;;0.56;80.84
53440;BME280;39333;47.044;15.080;2022-12-29T08:17:18;96346.97;;;0.63;81.00
53440;BME280;39333;47.044;15.080;2022-12-29T08:19:45;96354.72;;;0.71;80.82
53440;BME280;39333;47.044;15.080;2022-12-29T08:22:14;96363.03;;;0.89;80.73
53440;BME280;39333;47.044;15.080;2022-12-29T08:24:41;96350.91;;;1.11;80.65
53440;BME280;39333;47.044;15.080;2022-12-29T08:27:08;96356.38;;;1.31;80.09
53440;BME280;39333;47.044;15.080;2022-12-29T08:29:45;96352.00;;;1.46;79.54
53440;BME280;39333;47.044;15.080;2022-12-29T08:32:12;96364.84;;;1.62;79.39
53440;BME280;39333;47.044;15.080;2022-12-29T08:34:41;96356.38;;;1.75;78.20
53440;BME280;39333;47.044;15.080;2022-12-29T08:37:08;96355.97;;;1.93;78.53
53440;BME280;39333;47.044;15.080;2022-12-29T08:39:35;96357.72;;;2.07;76.90
53440;BME280;39333;47.044;15.080;2022-12-29T08:42:02;96353.06;;;2.24;76.48
53440;BME280;39333;47.044;15.080;2022-12-29T08:44:28;96350.63;;;2.43;77.06
53440;BME280;39333;47.044;15.080;2022-12-29T08:46:55;96337.88;;;2.62;77.15
53440;BME280;39333;47.044;15.080;2022-12-29T08:49:22;96341.97;;;2.92;76.17
53440;BME280;39333;47.044;15.080;2022-12-29T08:51:49;96342.13;;;3.19;74.54
53440;BME280;39333;47.044;15.080;2022-12-29T08:54:16;96353.53;;;3.39;72.90
53440;BME280;39333;47.044;15.080;2022-12-29T08:56:43;96357.13;;;3.72;71.77
53440;BME280;39333;47.044;15.080;2022-12-29T08:59:12;96358.19;;;3.91;70.08
53440;BME280;39333;47.044;15.080;2022-12-29T09:01:40;96352.66;;;4.27;69.21
53440;BME280;39333;47.044;15.080;2022-12-29T09:04:08;96350.25;;;4.58;67.37
53440;BME280;39333;47.044;15.080;2022-12-29T09:06:42;96355.31;;;5.19;63.65
53440;BME280;39333;47.044;15.080;2022-12-29T09:09:09;96347.94;;;5.54;64.23
53440;BME280;39333;47.044;15.080;2022-12-29T09:11:36;96353.31;;;5.79;61.67
53440;BME280;39333;47.044;15.080;2022-12-29T09:14:03;96364.47;;;6.26;59.09
53440;BME280;39333;47.044;15.080;2022-12-29T09:16:30;96353.59;;;6.79;58.06
53440;BME280;39333;47.044;15.080;2022-12-29T09:18:57;96350.97;;;6.79;58.49
53440;BME280;39333;47.044;15.080;2022-12-29T09:21:24;96349.66;;;7.13;54.42
53440;BME280;39333;47.044;15.080;2022-12-29T09:23:51;96340.25;;;7.42;55.39
53440;BME280;39333;47.044;15.080;2022-12-29T09:26:18;96346.84;;;7.69;52.83
53440;BME280;39333;47.044;15.080;2022-12-29T09:28:44;96344.00;;;8.19;51.51
53440;BME280;39333;47.044;15.080;2022-12-29T09:31:11;96343.56;;;8.40;50.76
53440;BME280;39333;47.044;15.080;2022-12-29T09:33:38;96348.81;;;8.82;48.91
53440;BME280;39333;47.044;15.080;2022-12-29T09:36:05;96343.81;;;9.15;49.16
53440;BME280;39333;47.044;15.080;2022-12-29T09:38:32;96348.75;;;9.23;48.42
53440;BME280;39333;47.044;15.080;2022-12-29T09:41:13;96348.16;;;9.44;46.44
53440;BME280;39333;47.044;15.080;2022-12-29T09:46:29;96329.22;;;9.88;45.09
53440;BME280;39333;47.044;15.080;2022-12-29T09:51:31;96328.91;;;10.12;44.66
53440;BME280;39333;47.044;15.080;2022-12-29T09:54:04;96321.34;;;10.04;43.83
53440;BME280;39333;47.044;15.080;2022-12-29T09:56:41;96308.53;;;10.13;44.12
53440;BME280;39333;47.044;15.080;2022-12-29T09:59:15;96309.81;;;10.22;43.34
53440;BME280;39333;47.044;15.080;2022-12-29T10:01:56;96299.75;;;10.24;43.81
53440;BME280;39333;47.044;15.080;2022-12-29T10:04:27;96294.41;;;10.36;44.03
53440;BME280;39333;47.044;15.080;2022-12-29T10:06:58;96296.59;;;10.39;43.55
53440;BME280;39333;47.044;15.080;2022-12-29T10:10:10;96296.19;;;10.47;43.10
53440;BME280;39333;47.044;15.080;2022-12-29T10:13:06;96286.97;;;10.66;44.33
53440;BME280;39333;47.044;15.080;2022-12-29T10:15:52;96277.06;;;10.62;42.18
53440;BME280;39333;47.044;15.080;2022-12-29T10:18:37;96290.50;;;10.72;42.81
53440;BME280;39333;47.044;15.080;2022-12-29T10:21:33;96282.38;;;10.78;42.32
53440;BME280;39333;47.044;15.080;2022-12-29T10:24:07;96292.09;;;10.73;42.43
53440;BME280;39333;47.044;15.080;2022-12-29T10:26:41;96289.53;;;10.95;42.36
53440;BME280;39333;47.044;15.080;2022-12-29T10:31:44;96291.63;;;10.76;41.62
53440;BME280;39333;47.044;15.080;2022-12-29T10:34:28;96276.03;;;10.79;41.90
53440;BME280;39333;47.044;15.080;2022-12-29T10:37:04;96264.47;;;10.85;41.20
53440;BME280;39333;47.044;15.080;2022-12-29T10:39:45;96266.88;;;10.87;41.55
53440;BME280;39333;47.044;15.080;2022-12-29T10:42:28;96254.44;;;10.88;41.88
53440;BME280;39333;47.044;15.080;2022-12-29T10:44:56;96263.25;;;10.93;41.96
53440;BME280;39333;47.044;15.080;2022-12-29T10:47:27;96264.47;;;10.85;41.31
53440;BME280;39333;47.044;15.080;2022-12-29T10:49:56;96266.88;;;10.87;41.21
53440;BME280;39333;47.044;15.080;2022-12-29T10:52:26;96267.28;;;10.96;41.27
53440;BME280;39333;47.044;15.080;2022-12-29T10:57:30;96261.88;;;11.07;40.59
53440;BME280;39333;47.044;15.080;2022-12-29T10:59:59;96257.00;;;11.21;40.69
53440;BME280;39333;47.044;15.080;2022-12-29T11:08:15;96255.69;;;11.40;40.71
53440;BME280;39333;47.044;15.080;2022-12-29T11:10:44;96250.81;;;11.32;40.75
53440;BME280;39333;47.044;15.080;2022-12-29T11:13:17;96253.59;;;11.42;40.35
53440;BME280;39333;47.044;15.080;2022-12-29T11:15:49;96255.13;;;11.38;40.78
53440;BME280;39333;47.044;15.080;2022-12-29T11:18:26;96261.00;;;11.40;40.06
53440;BME280;39333;47.044;15.080;2022-12-29T11:20:55;96249.41;;;11.46;39.86
53440;BME280;39333;47.044;15.080;2022-12-29T11:23:37;96259.22;;;11.46;40.49
53440;BME280;39333;47.044;15.080;2022-12-29T11:28:41;96247.63;;;11.52;40.04
53440;BME280;39333;47.044;15.080;2022-12-29T11:31:09;96244.69;;;11.32;39.82
53440;BME280;39333;47.044;15.080;2022-12-29T11:33:38;96251.38;;;11.34;40.45
53440;BME280;39333;47.044;15.080;2022-12-29T11:38:37;96252.28;;;11.45;40.38
53440;BME280;39333;47.044;15.080;2022-12-29T11:41:06;96246.50;;;11.48;41.00
53440;BME280;39333;47.044;15.080;2022-12-29T11:43:40;96245.06;;;11.40;41.15
53440;BME280;39333;47.044;15.080;2022-12-29T11:46:27;96257.59;;;11.45;40.84
53440;BME280;39333;47.044;15.080;2022-12-29T11:48:56;96256.72;;;11.39;40.41
53440;BME280;39333;47.044;15.080;2022-12-29T11:51:45;96248.16;;;11.54;40.32
53440;BME280;39333;47.044;15.080;2022-12-29T11:54:38;96239.31;;;11.70;41.82
53440;BME280;39333;47.044;15.080;2022-12-29T11:57:14;96236.56;;;11.60;41.16
53440;BME280;39333;47.044;15.080;2022-12-29T11:59:53;96255.16;;;11.60;40.81
53440;BME280;39333;47.044;15.080;2022-12-29T12:04:58;96238.28;;;11.49;40.87
53440;BME280;39333;47.044;15.080;2022-12-29T12:07:42;96224.56;;;11.57;40.42
53440;BME280;39333;47.044;15.080;2022-12-29T12:10:31;96234.94;;;11.59;40.57
53440;BME280;39333;47.044;15.080;2022-12-29T12:15:41;96224.88;;;11.61;41.00
53440;BME280;39333;47.044;15.080;2022-12-29T12:18:17;96211.63;;;11.83;40.71
53440;BME280;39333;47.044;15.080;2022-12-29T12:20:49;96223.31;;;11.82;40.40
53440;BME280;39333;47.044;15.080;2022-12-29T12:23:40;96214.31;;;11.88;40.96
53440;BME280;39333;47.044;15.080;2022-12-29T12:26:16;96218.63;;;11.94;41.59
53440;BME280;39333;47.044;15.080;2022-12-29T12:28:52;96219.63;;;11.88;40.51
53440;BME280;39333;47.044;15.080;2022-12-29T12:34:12;96222.81;;;11.85;40.97
53440;BME280;39333;47.044;15.080;2022-12-29T12:39:43;96205.97;;;11.57;41.27
53440;BME280;39333;47.044;15.080;2022-12-29T12:58:56;96217.19;;;12.08;40.51
53440;BME280;39333;47.044;15.080;2022-12-29T13:10:29;96215.97;;;11.72;42.78
53440;BME280;39333;47.044;15.080;2022-12-29T13:30:18;96195.25;;;11.47;42.59
53440;BME280;39333;47.044;15.080;2022-12-29T13:32:53;96209.13;;;11.54;42.82
53440;BME280;39333;47.044;15.080;2022-12-29T13:40:48;96210.44;;;11.30;43.19
53440;BME280;39333;47.044;15.080;2022-12-29T13:43:17;96204.69;;;11.38;43.63
53440;BME280;39333;47.044;15.080;2022-12-29T13:45:45;96221.06;;;11.30;43.80
53440;BME280;39333;47.044;15.080;2022-12-29T13:48:20;96213.84;;;11.47;43.67
53440;BME280;39333;47.044;15.080;2022-12-29T13:50:55;96205.31;;;11.45;43.32
53440;BME280;39333;47.044;15.080;2022-12-29T13:53:49;96219.00;;;11.37;43.50
53440;BME280;39333;47.044;15.080;2022-12-29T13:56:24;96212.13;;;11.36;44.57
53440;BME280;39333;47.044;15.080;2022-12-29T13:58:57;96221.28;;;11.29;44.10
53440;BME280;39333;47.044;15.080;2022-12-29T14:01:34;96214.13;;;11.29;44.45
53440;BME280;39333;47.044;15.080;2022-12-29T14:04:13;96222.22;;;11.39;44.99
53440;BME280;39333;47.044;15.080;2022-12-29T14:06:43;96224.69;;;11.24;44.17
53440;BME280;39333;47.044;15.080;2022-12-29T14:09:41;96215.31;;;11.16;44.06
53440;BME280;39333;47.044;15.080;2022-12-29T14:12:21;96234.19;;;11.20;45.45
53440;BME280;39333;47.044;15.080;2022-12-29T14:15:03;96233.72;;;11.06;45.00
53440;BME280;39333;47.044;15.080;2022-12-29T14:17:42;96230.97;;;10.79;45.32
53440;BME280;39333;47.044;15.080;2022-12-29T14:20:20;96223.91;;;10.51;46.55
53440;BME280;39333;47.044;15.080;2022-12-29T14:28:29;96234.34;;;10.13;46.57
53440;BME280;39333;47.044;15.080;2022-12-29T14:31:05;96232.56;;;10.02;47.01
53440;BME280;39333;47.044;15.080;2022-12-29T14:39:42;96232.28;;;9.87;48.00
53440;BME280;39333;47.044;15.080;2022-12-29T14:44:50;96238.28;;;9.82;48.14
53440;BME280;39333;47.044;15.080;2022-12-29T14:50:05;96239.31;;;9.81;48.00
53440;BME280;39333;47.044;15.080;2022-12-29T14:57:50;96245.84;;;9.62;48.67
53440;BME280;39333;47.044;15.080;2022-12-29T15:00:27;96244.22;;;9.61;48.87
53440;BME280;39333;47.044;15.080;2022-12-29T15:03:06;96248.28;;;9.52;48.84
53440;BME280;39333;47.044;15.080;2022-12-29T15:05:37;96253.00;;;9.50;49.09
53440;BME280;39333;47.044;15.080;2022-12-29T15:08:11;96255.88;;;9.48;49.38
53440;BME280;39333;47.044;15.080;2022-12-29T15:10:46;96258.69;;;9.41;49.30
53440;BME280;39333;47.044;15.080;2022-12-29T15:13:22;96264.53;;;9.32;49.95
53440;BME280;39333;47.044;15.080;2022-12-29T15:15:49;96260.75;;;9.28;49.52
53440;BME280;39333;47.044;15.080;2022-12-29T15:20:59;96261.81;;;9.15;50.87
53440;BME280;39333;47.044;15.080;2022-12-29T15:23:27;96260.56;;;9.06;50.82
53440;BME280;39333;47.044;15.080;2022-12-29T15:26:05;96268.13;;;9.02;50.48
53440;BME280;39333;47.044;15.080;2022-12-29T15:28:42;96271.59;;;9.03;50.41
53440;BME280;39333;47.044;15.080;2022-12-29T15:31:19;96273.31;;;8.97;51.50
53440;BME280;39333;47.044;15.080;2022-12-29T15:34:02;96273.88;;;8.88;51.36
53440;BME280;39333;47.044;15.080;2022-12-29T15:36:38;96275.59;;;8.82;51.26
53440;BME280;39333;47.044;15.080;2022-12-29T15:39:28;96273.63;;;8.77;52.20
53440;BME280;39333;47.044;15.080;2022-12-29T15:42:10;96274.94;;;8.75;51.92
53440;BME280;39333;47.044;15.080;2022-12-29T15:44:43;96274.13;;;8.74;51.61
53440;BME280;39333;47.044;15.080;2022-12-29T15:47:20;96277.78;;;8.73;51.73
53440;BME280;39333;47.044;15.080;2022-12-29T15:49:49;96277.56;;;8.75;51.92
53440;BME280;39333;47.044;15.080;2022-12-29T15:52:19;96268.84;;;8.74;52.12